CheckWX is a tool to help pilots better visualize weather data.  It is not intended as a substitute for an official pre-flight weather briefing.

06:34:17 UTC

EHDV METAR
D15-fa-1 Sea
D15-fa-1 Sea, The Netherlands
Current

39 mins ago

EHDV 230555Z AUTO 10027KT 9999 NCD 09/06 Q1004 W///H///
Observed
Apr-23 @ 05:55 UTC
Wind
  • 100° at 27 KTS
Visibility
10,000+ meters
Flight Rules
VFR
Cloud Levels
  • Clear skies
Temperature
C / 48°F
Dewpoint
C / 43°F
Humidity
82%
Altimeter
29.65" Hg
Pressure
1003.92 hPa
Previous

1 hour ago

EHDV 230525Z AUTO 10027KT 9999 NSC 09/06 Q1004 W///H///
Observed
Apr-23 @ 05:25 UTC
Wind
  • 100° at 27 KTS
Visibility
10,000+ meters
Flight Rules
VFR
Cloud Levels
  • Clear skies
Temperature
C / 48°F
Dewpoint
C / 43°F
Humidity
82%
Altimeter
29.65" Hg
Pressure
1003.92 hPa
Previous

2 hours ago

EHDV 230455Z AUTO 10030KT 9999 NCD 10/06 Q1005 W///H///
Observed
Apr-23 @ 04:55 UTC
Wind
  • 100° at 30 KTS
Visibility
10,000+ meters
Flight Rules
VFR
Cloud Levels
  • Clear skies
Temperature
10°C / 50°F
Dewpoint
C / 43°F
Humidity
76%
Altimeter
29.68" Hg
Pressure
1004.92 hPa